sensor_id;sensor_type;location;lat;lon;timestamp;P1;durP1;ratioP1;P2;durP2;ratioP2
69325;SDS011;56471;53.508;49.252;2023-05-10T00:00:32;1.20;;;1.00;;
69325;SDS011;56471;53.508;49.252;2023-05-10T00:02:58;1.75;;;1.20;;
69325;SDS011;56471;53.508;49.252;2023-05-10T00:05:24;2.05;;;1.20;;
69325;SDS011;56471;53.508;49.252;2023-05-10T00:07:49;1.45;;;1.15;;
69325;SDS011;56471;53.508;49.252;2023-05-10T00:10:15;2.75;;;1.23;;
69325;SDS011;56471;53.508;49.252;2023-05-10T00:12:41;1.20;;;1.00;;
69325;SDS011;56471;53.508;49.252;2023-05-10T00:15:07;1.50;;;1.10;;
69325;SDS011;56471;53.508;49.252;2023-05-10T00:17:33;1.48;;;1.02;;
69325;SDS011;56471;53.508;49.252;2023-05-10T00:19:59;1.15;;;1.00;;
69325;SDS011;56471;53.508;49.252;2023-05-10T00:22:25;1.45;;;1.02;;
69325;SDS011;56471;53.508;49.252;2023-05-10T00:24:51;1.73;;;1.08;;
69325;SDS011;56471;53.508;49.252;2023-05-10T00:27:16;1.58;;;1.40;;
69325;SDS011;56471;53.508;49.252;2023-05-10T00:29:42;2.55;;;1.00;;
69325;SDS011;56471;53.508;49.252;2023-05-10T00:32:08;2.28;;;1.20;;
69325;SDS011;56471;53.508;49.252;2023-05-10T00:34:33;1.63;;;0.93;;
69325;SDS011;56471;53.508;49.252;2023-05-10T00:36:59;1.30;;;1.20;;
69325;SDS011;56471;53.508;49.252;2023-05-10T00:39:25;1.40;;;1.02;;
69325;SDS011;56471;53.508;49.252;2023-05-10T00:41:51;1.20;;;1.00;;
69325;SDS011;56471;53.508;49.252;2023-05-10T00:44:17;1.67;;;1.10;;
69325;SDS011;56471;53.508;49.252;2023-05-10T00:46:43;1.75;;;1.30;;
69325;SDS011;56471;53.508;49.252;2023-05-10T00:49:10;2.30;;;1.20;;
69325;SDS011;56471;53.508;49.252;2023-05-10T00:51:36;2.22;;;1.30;;
69325;SDS011;56471;53.508;49.252;2023-05-10T00:54:02;2.50;;;1.00;;
69325;SDS011;56471;53.508;49.252;2023-05-10T00:56:28;1.40;;;1.30;;
69325;SDS011;56471;53.508;49.252;2023-05-10T00:58:55;3.97;;;1.40;;
69325;SDS011;56471;53.508;49.252;2023-05-10T01:01:20;1.42;;;1.23;;
69325;SDS011;56471;53.508;49.252;2023-05-10T01:03:46;1.10;;;1.00;;
69325;SDS011;56471;53.508;49.252;2023-05-10T01:06:12;1.92;;;1.05;;
69325;SDS011;56471;53.508;49.252;2023-05-10T01:08:38;2.72;;;1.10;;
69325;SDS011;56471;53.508;49.252;2023-05-10T01:11:04;3.60;;;1.30;;
69325;SDS011;56471;53.508;49.252;2023-05-10T01:13:33;1.67;;;1.20;;
69325;SDS011;56471;53.508;49.252;2023-05-10T01:16:02;1.98;;;1.30;;
69325;SDS011;56471;53.508;49.252;2023-05-10T01:18:29;1.90;;;1.20;;
69325;SDS011;56471;53.508;49.252;2023-05-10T01:23:33;1.63;;;1.25;;
69325;SDS011;56471;53.508;49.252;2023-05-10T01:26:25;4.05;;;1.30;;
69325;SDS011;56471;53.508;49.252;2023-05-10T01:32:26;2.00;;;1.10;;
69325;SDS011;56471;53.508;49.252;2023-05-10T01:35:07;4.60;;;1.25;;
69325;SDS011;56471;53.508;49.252;2023-05-10T01:37:54;3.53;;;1.20;;
69325;SDS011;56471;53.508;49.252;2023-05-10T01:40:54;2.88;;;1.20;;
69325;SDS011;56471;53.508;49.252;2023-05-10T01:44:07;2.60;;;1.40;;
69325;SDS011;56471;53.508;49.252;2023-05-10T01:46:41;2.97;;;1.20;;
69325;SDS011;56471;53.508;49.252;2023-05-10T01:49:27;3.15;;;1.30;;
69325;SDS011;56471;53.508;49.252;2023-05-10T01:52:00;2.13;;;1.27;;
69325;SDS011;56471;53.508;49.252;2023-05-10T01:54:31;2.75;;;1.27;;
69325;SDS011;56471;53.508;49.252;2023-05-10T01:57:00;1.80;;;1.30;;
69325;SDS011;56471;53.508;49.252;2023-05-10T01:59:29;2.60;;;1.08;;
69325;SDS011;56471;53.508;49.252;2023-05-10T02:02:01;2.72;;;1.30;;
69325;SDS011;56471;53.508;49.252;2023-05-10T02:04:29;1.90;;;1.20;;
69325;SDS011;56471;53.508;49.252;2023-05-10T02:06:56;2.90;;;1.10;;
69325;SDS011;56471;53.508;49.252;2023-05-10T02:09:22;2.90;;;1.40;;
69325;SDS011;56471;53.508;49.252;2023-05-10T02:11:50;3.05;;;1.27;;
69325;SDS011;56471;53.508;49.252;2023-05-10T02:14:16;1.70;;;1.20;;
69325;SDS011;56471;53.508;49.252;2023-05-10T02:16:43;1.98;;;1.38;;
69325;SDS011;56471;53.508;49.252;2023-05-10T02:19:11;1.98;;;1.30;;
69325;SDS011;56471;53.508;49.252;2023-05-10T02:21:39;3.33;;;1.33;;
69325;SDS011;56471;53.508;49.252;2023-05-10T02:24:06;1.88;;;1.40;;
69325;SDS011;56471;53.508;49.252;2023-05-10T02:26:33;1.88;;;1.20;;
69325;SDS011;56471;53.508;49.252;2023-05-10T02:29:04;3.38;;;1.27;;
69325;SDS011;56471;53.508;49.252;2023-05-10T02:31:32;2.30;;;1.27;;
69325;SDS011;56471;53.508;49.252;2023-05-10T02:33:59;1.80;;;1.50;;
69325;SDS011;56471;53.508;49.252;2023-05-10T02:36:26;3.30;;;1.45;;
69325;SDS011;56471;53.508;49.252;2023-05-10T02:38:52;6.88;;;1.40;;
69325;SDS011;56471;53.508;49.252;2023-05-10T02:41:19;3.40;;;1.33;;
69325;SDS011;56471;53.508;49.252;2023-05-10T02:43:49;2.17;;;1.35;;
69325;SDS011;56471;53.508;49.252;2023-05-10T02:46:17;2.28;;;1.30;;
69325;SDS011;56471;53.508;49.252;2023-05-10T02:48:42;2.28;;;1.38;;
69325;SDS011;56471;53.508;49.252;2023-05-10T02:51:08;1.20;;;1.10;;
69325;SDS011;56471;53.508;49.252;2023-05-10T02:53:39;2.42;;;1.23;;
69325;SDS011;56471;53.508;49.252;2023-05-10T02:56:12;2.45;;;1.23;;
69325;SDS011;56471;53.508;49.252;2023-05-10T02:58:40;1.77;;;1.20;;
69325;SDS011;56471;53.508;49.252;2023-05-10T03:01:06;2.35;;;1.23;;
69325;SDS011;56471;53.508;49.252;2023-05-10T03:03:32;3.25;;;1.38;;
69325;SDS011;56471;53.508;49.252;2023-05-10T03:05:58;2.50;;;1.40;;
69325;SDS011;56471;53.508;49.252;2023-05-10T03:08:24;1.63;;;1.35;;
69325;SDS011;56471;53.508;49.252;2023-05-10T03:13:49;4.38;;;1.40;;
69325;SDS011;56471;53.508;49.252;2023-05-10T03:16:28;1.98;;;1.40;;
69325;SDS011;56471;53.508;49.252;2023-05-10T03:19:11;2.25;;;1.30;;
69325;SDS011;56471;53.508;49.252;2023-05-10T03:21:43;1.40;;;1.10;;
69325;SDS011;56471;53.508;49.252;2023-05-10T03:24:12;2.70;;;1.35;;
69325;SDS011;56471;53.508;49.252;2023-05-10T03:26:40;2.25;;;1.25;;
69325;SDS011;56471;53.508;49.252;2023-05-10T03:29:10;1.73;;;1.33;;
69325;SDS011;56471;53.508;49.252;2023-05-10T03:31:38;2.53;;;1.10;;
69325;SDS011;56471;53.508;49.252;2023-05-10T03:34:04;2.58;;;1.17;;
69325;SDS011;56471;53.508;49.252;2023-05-10T03:36:30;2.97;;;1.27;;
69325;SDS011;56471;53.508;49.252;2023-05-10T03:38:55;2.85;;;1.33;;
69325;SDS011;56471;53.508;49.252;2023-05-10T03:41:21;3.20;;;1.30;;
69325;SDS011;56471;53.508;49.252;2023-05-10T03:43:47;2.13;;;1.30;;
69325;SDS011;56471;53.508;49.252;2023-05-10T03:46:12;4.53;;;1.40;;
69325;SDS011;56471;53.508;49.252;2023-05-10T03:48:38;1.92;;;1.30;;
69325;SDS011;56471;53.508;49.252;2023-05-10T03:51:04;2.28;;;1.23;;
69325;SDS011;56471;53.508;49.252;2023-05-10T03:53:29;3.38;;;1.35;;
69325;SDS011;56471;53.508;49.252;2023-05-10T03:55:55;3.60;;;1.50;;
69325;SDS011;56471;53.508;49.252;2023-05-10T03:58:20;2.65;;;1.40;;
69325;SDS011;56471;53.508;49.252;2023-05-10T04:00:46;2.60;;;1.60;;
69325;SDS011;56471;53.508;49.252;2023-05-10T04:03:12;3.58;;;1.60;;
69325;SDS011;56471;53.508;49.252;2023-05-10T04:05:38;2.58;;;1.35;;
69325;SDS011;56471;53.508;49.252;2023-05-10T04:08:04;2.28;;;1.23;;
69325;SDS011;56471;53.508;49.252;2023-05-10T04:10:30;3.58;;;1.30;;
69325;SDS011;56471;53.508;49.252;2023-05-10T04:12:56;2.55;;;1.30;;
69325;SDS011;56471;53.508;49.252;2023-05-10T04:15:22;2.92;;;1.33;;
69325;SDS011;56471;53.508;49.252;2023-05-10T04:17:48;4.20;;;1.40;;
69325;SDS011;56471;53.508;49.252;2023-05-10T04:20:13;3.72;;;1.40;;
69325;SDS011;56471;53.508;49.252;2023-05-10T04:22:39;3.70;;;1.42;;
69325;SDS011;56471;53.508;49.252;2023-05-10T04:25:06;2.47;;;1.58;;
69325;SDS011;56471;53.508;49.252;2023-05-10T04:27:32;3.00;;;1.25;;
69325;SDS011;56471;53.508;49.252;2023-05-10T04:29:58;2.58;;;1.30;;
69325;SDS011;56471;53.508;49.252;2023-05-10T04:32:24;2.15;;;1.20;;
69325;SDS011;56471;53.508;49.252;2023-05-10T04:34:49;2.75;;;1.50;;
69325;SDS011;56471;53.508;49.252;2023-05-10T04:37:18;6.47;;;1.48;;
69325;SDS011;56471;53.508;49.252;2023-05-10T04:39:44;5.55;;;1.55;;
69325;SDS011;56471;53.508;49.252;2023-05-10T04:42:09;3.25;;;1.55;;
69325;SDS011;56471;53.508;49.252;2023-05-10T04:44:36;2.65;;;1.60;;
69325;SDS011;56471;53.508;49.252;2023-05-10T04:47:02;4.13;;;1.20;;
69325;SDS011;56471;53.508;49.252;2023-05-10T04:49:28;3.60;;;1.45;;
69325;SDS011;56471;53.508;49.252;2023-05-10T04:51:54;2.95;;;1.67;;
69325;SDS011;56471;53.508;49.252;2023-05-10T04:54:20;4.90;;;1.70;;
69325;SDS011;56471;53.508;49.252;2023-05-10T04:56:46;3.97;;;1.30;;
69325;SDS011;56471;53.508;49.252;2023-05-10T04:59:12;2.65;;;1.50;;
69325;SDS011;56471;53.508;49.252;2023-05-10T05:01:37;2.92;;;1.27;;
69325;SDS011;56471;53.508;49.252;2023-05-10T05:04:03;4.38;;;1.42;;
69325;SDS011;56471;53.508;49.252;2023-05-10T05:06:29;2.65;;;1.20;;
69325;SDS011;56471;53.508;49.252;2023-05-10T05:08:54;1.95;;;1.20;;
69325;SDS011;56471;53.508;49.252;2023-05-10T05:11:20;2.95;;;1.27;;
69325;SDS011;56471;53.508;49.252;2023-05-10T05:13:46;2.83;;;1.13;;
69325;SDS011;56471;53.508;49.252;2023-05-10T05:16:11;2.38;;;1.20;;
69325;SDS011;56471;53.508;49.252;2023-05-10T05:18:37;2.15;;;1.15;;
69325;SDS011;56471;53.508;49.252;2023-05-10T05:21:03;1.83;;;1.00;;
69325;SDS011;56471;53.508;49.252;2023-05-10T05:23:28;2.42;;;1.13;;
69325;SDS011;56471;53.508;49.252;2023-05-10T05:25:54;1.55;;;1.05;;
69325;SDS011;56471;53.508;49.252;2023-05-10T05:28:20;19.13;;;11.63;;
69325;SDS011;56471;53.508;49.252;2023-05-10T05:30:46;295.88;;;229.48;;
69325;SDS011;56471;53.508;49.252;2023-05-10T05:33:13;259.42;;;194.93;;
69325;SDS011;56471;53.508;49.252;2023-05-10T05:35:40;210.18;;;147.38;;
69325;SDS011;56471;53.508;49.252;2023-05-10T05:38:08;191.75;;;133.77;;
69325;SDS011;56471;53.508;49.252;2023-05-10T05:40:33;154.00;;;107.93;;
69325;SDS011;56471;53.508;49.252;2023-05-10T05:42:59;118.22;;;81.28;;
69325;SDS011;56471;53.508;49.252;2023-05-10T05:45:25;92.95;;;59.53;;
69325;SDS011;56471;53.508;49.252;2023-05-10T05:47:50;74.85;;;46.03;;
69325;SDS011;56471;53.508;49.252;2023-05-10T05:50:16;58.95;;;36.35;;
69325;SDS011;56471;53.508;49.252;2023-05-10T05:52:42;45.38;;;28.20;;
69325;SDS011;56471;53.508;49.252;2023-05-10T05:55:08;38.88;;;24.17;;
69325;SDS011;56471;53.508;49.252;2023-05-10T05:57:33;28.80;;;18.75;;
69325;SDS011;56471;53.508;49.252;2023-05-10T05:59:59;25.55;;;16.50;;
69325;SDS011;56471;53.508;49.252;2023-05-10T06:02:25;19.95;;;13.30;;
69325;SDS011;56471;53.508;49.252;2023-05-10T06:04:50;21.30;;;11.48;;
69325;SDS011;56471;53.508;49.252;2023-05-10T06:07:16;14.55;;;9.52;;
69325;SDS011;56471;53.508;49.252;2023-05-10T06:09:41;426.30;;;306.77;;
69325;SDS011;56471;53.508;49.252;2023-05-10T06:12:07;625.65;;;480.13;;
69325;SDS011;56471;53.508;49.252;2023-05-10T06:14:33;604.78;;;455.85;;
69325;SDS011;56471;53.508;49.252;2023-05-10T06:16:58;455.17;;;321.45;;
69325;SDS011;56471;53.508;49.252;2023-05-10T06:19:25;387.00;;;266.45;;
69325;SDS011;56471;53.508;49.252;2023-05-10T06:21:51;324.05;;;213.65;;
69325;SDS011;56471;53.508;49.252;2023-05-10T06:24:17;235.63;;;139.95;;
69325;SDS011;56471;53.508;49.252;2023-05-10T06:26:42;162.55;;;98.93;;
69325;SDS011;56471;53.508;49.252;2023-05-10T06:29:08;132.30;;;77.15;;
69325;SDS011;56471;53.508;49.252;2023-05-10T06:31:34;111.18;;;63.15;;
69325;SDS011;56471;53.508;49.252;2023-05-10T06:34:02;92.35;;;51.47;;
69325;SDS011;56471;53.508;49.252;2023-05-10T06:36:28;67.22;;;35.47;;
69325;SDS011;56471;53.508;49.252;2023-05-10T06:38:53;49.85;;;25.58;;
69325;SDS011;56471;53.508;49.252;2023-05-10T06:41:19;42.05;;;22.83;;
69325;SDS011;56471;53.508;49.252;2023-05-10T06:43:46;33.72;;;16.42;;
69325;SDS011;56471;53.508;49.252;2023-05-10T06:46:11;21.20;;;11.00;;
69325;SDS011;56471;53.508;49.252;2023-05-10T06:48:37;18.48;;;9.50;;
69325;SDS011;56471;53.508;49.252;2023-05-10T06:51:03;11.95;;;6.75;;
69325;SDS011;56471;53.508;49.252;2023-05-10T06:53:29;12.65;;;5.95;;
69325;SDS011;56471;53.508;49.252;2023-05-10T06:55:54;8.82;;;4.53;;
69325;SDS011;56471;53.508;49.252;2023-05-10T06:58:20;5.95;;;3.80;;
69325;SDS011;56471;53.508;49.252;2023-05-10T07:00:46;5.70;;;3.00;;
69325;SDS011;56471;53.508;49.252;2023-05-10T07:03:12;7.00;;;2.80;;
69325;SDS011;56471;53.508;49.252;2023-05-10T07:05:37;6.00;;;2.00;;
69325;SDS011;56471;53.508;49.252;2023-05-10T07:08:03;5.30;;;1.50;;
69325;SDS011;56471;53.508;49.252;2023-05-10T07:10:29;4.28;;;1.67;;
69325;SDS011;56471;53.508;49.252;2023-05-10T07:12:54;3.35;;;1.50;;
69325;SDS011;56471;53.508;49.252;2023-05-10T07:15:20;4.97;;;1.10;;
69325;SDS011;56471;53.508;49.252;2023-05-10T07:17:46;1.80;;;1.15;;
69325;SDS011;56471;53.508;49.252;2023-05-10T07:20:12;2.20;;;1.00;;
69325;SDS011;56471;53.508;49.252;2023-05-10T07:22:37;2.78;;;1.10;;
69325;SDS011;56471;53.508;49.252;2023-05-10T07:25:03;178.43;;;127.07;;
69325;SDS011;56471;53.508;49.252;2023-05-10T07:27:29;493.88;;;378.38;;
69325;SDS011;56471;53.508;49.252;2023-05-10T07:29:55;374.90;;;279.33;;
69325;SDS011;56471;53.508;49.252;2023-05-10T07:32:21;255.90;;;178.05;;
69325;SDS011;56471;53.508;49.252;2023-05-10T07:34:47;169.23;;;113.13;;
69325;SDS011;56471;53.508;49.252;2023-05-10T07:37:12;109.93;;;70.40;;
69325;SDS011;56471;53.508;49.252;2023-05-10T07:39:38;88.28;;;53.80;;
69325;SDS011;56471;53.508;49.252;2023-05-10T07:42:04;69.32;;;39.30;;
69325;SDS011;56471;53.508;49.252;2023-05-10T07:44:30;47.50;;;27.15;;
69325;SDS011;56471;53.508;49.252;2023-05-10T07:46:56;30.73;;;17.48;;
69325;SDS011;56471;53.508;49.252;2023-05-10T07:49:22;18.55;;;10.77;;
69325;SDS011;56471;53.508;49.252;2023-05-10T07:51:49;14.80;;;8.05;;
69325;SDS011;56471;53.508;49.252;2023-05-10T07:54:15;10.05;;;6.07;;
69325;SDS011;56471;53.508;49.252;2023-05-10T07:56:40;7.40;;;4.40;;
69325;SDS011;56471;53.508;49.252;2023-05-10T07:59:14;5.30;;;3.20;;
69325;SDS011;56471;53.508;49.252;2023-05-10T08:01:40;5.70;;;3.13;;
69325;SDS011;56471;53.508;49.252;2023-05-10T08:04:06;4.95;;;2.95;;
69325;SDS011;56471;53.508;49.252;2023-05-10T08:06:32;4.53;;;2.55;;
69325;SDS011;56471;53.508;49.252;2023-05-10T08:08:58;3.80;;;2.10;;
69325;SDS011;56471;53.508;49.252;2023-05-10T08:11:23;5.10;;;1.80;;
69325;SDS011;56471;53.508;49.252;2023-05-10T08:13:50;2.00;;;1.60;;
69325;SDS011;56471;53.508;49.252;2023-05-10T08:16:16;2.53;;;1.40;;
69325;SDS011;56471;53.508;49.252;2023-05-10T08:18:43;3.08;;;1.30;;
69325;SDS011;56471;53.508;49.252;2023-05-10T08:21:10;1.77;;;1.30;;
69325;SDS011;56471;53.508;49.252;2023-05-10T08:23:38;8.20;;;1.58;;
69325;SDS011;56471;53.508;49.252;2023-05-10T08:26:04;8.90;;;1.60;;
69325;SDS011;56471;53.508;49.252;2023-05-10T08:28:30;79.03;;;4.90;;
69325;SDS011;56471;53.508;49.252;2023-05-10T08:30:55;25.27;;;2.55;;
69325;SDS011;56471;53.508;49.252;2023-05-10T08:33:21;6.72;;;1.60;;
69325;SDS011;56471;53.508;49.252;2023-05-10T08:35:47;10.48;;;1.52;;
69325;SDS011;56471;53.508;49.252;2023-05-10T08:38:12;5.90;;;1.27;;
69325;SDS011;56471;53.508;49.252;2023-05-10T08:40:39;1.75;;;1.50;;
69325;SDS011;56471;53.508;49.252;2023-05-10T08:43:09;2.33;;;1.30;;
69325;SDS011;56471;53.508;49.252;2023-05-10T08:45:37;4.00;;;1.33;;
69325;SDS011;56471;53.508;49.252;2023-05-10T08:48:07;4.63;;;1.60;;
69325;SDS011;56471;53.508;49.252;2023-05-10T08:50:38;3.97;;;1.50;;
69325;SDS011;56471;53.508;49.252;2023-05-10T08:53:06;3.03;;;1.55;;
69325;SDS011;56471;53.508;49.252;2023-05-10T08:55:36;3.22;;;1.70;;
69325;SDS011;56471;53.508;49.252;2023-05-10T08:58:04;3.38;;;1.70;;
69325;SDS011;56471;53.508;49.252;2023-05-10T09:00:30;293.27;;;206.02;;
69325;SDS011;56471;53.508;49.252;2023-05-10T09:02:59;476.00;;;376.00;;
69325;SDS011;56471;53.508;49.252;2023-05-10T09:05:25;605.38;;;485.52;;
69325;SDS011;56471;53.508;49.252;2023-05-10T09:07:52;417.85;;;304.02;;
69325;SDS011;56471;53.508;49.252;2023-05-10T09:10:18;362.77;;;258.80;;
69325;SDS011;56471;53.508;49.252;2023-05-10T09:12:44;329.23;;;235.82;;
69325;SDS011;56471;53.508;49.252;2023-05-10T09:15:10;294.33;;;203.77;;
69325;SDS011;56471;53.508;49.252;2023-05-10T09:17:39;222.63;;;144.88;;
69325;SDS011;56471;53.508;49.252;2023-05-10T09:20:06;183.07;;;122.18;;
69325;SDS011;56471;53.508;49.252;2023-05-10T09:22:32;148.68;;;96.53;;
69325;SDS011;56471;53.508;49.252;2023-05-10T09:27:31;106.43;;;65.43;;
69325;SDS011;56471;53.508;49.252;2023-05-10T09:29:57;84.10;;;49.17;;
69325;SDS011;56471;53.508;49.252;2023-05-10T09:32:35;43.30;;;26.40;;
69325;SDS011;56471;53.508;49.252;2023-05-10T09:35:15;31.05;;;19.30;;
69325;SDS011;56471;53.508;49.252;2023-05-10T09:37:43;21.05;;;13.30;;
69325;SDS011;56471;53.508;49.252;2023-05-10T09:40:12;15.95;;;10.07;;
69325;SDS011;56471;53.508;49.252;2023-05-10T09:42:42;11.60;;;7.43;;
69325;SDS011;56471;53.508;49.252;2023-05-10T09:45:18;9.07;;;5.00;;
69325;SDS011;56471;53.508;49.252;2023-05-10T09:47:45;6.28;;;4.22;;
69325;SDS011;56471;53.508;49.252;2023-05-10T09:50:11;5.22;;;3.60;;
69325;SDS011;56471;53.508;49.252;2023-05-10T09:52:46;3.47;;;2.53;;
69325;SDS011;56471;53.508;49.252;2023-05-10T09:55:16;4.85;;;2.92;;
69325;SDS011;56471;53.508;49.252;2023-05-10T09:57:45;4.63;;;2.80;;
69325;SDS011;56471;53.508;49.252;2023-05-10T10:00:14;2.92;;;2.33;;
69325;SDS011;56471;53.508;49.252;2023-05-10T10:02:42;2.30;;;2.10;;
69325;SDS011;56471;53.508;49.252;2023-05-10T10:05:11;4.95;;;2.30;;
69325;SDS011;56471;53.508;49.252;2023-05-10T10:07:36;6.88;;;2.30;;
69325;SDS011;56471;53.508;49.252;2023-05-10T10:10:02;6.07;;;2.85;;
69325;SDS011;56471;53.508;49.252;2023-05-10T10:12:30;6.60;;;2.40;;
69325;SDS011;56471;53.508;49.252;2023-05-10T10:14:56;3.65;;;2.38;;
69325;SDS011;56471;53.508;49.252;2023-05-10T10:17:22;3.85;;;2.70;;
69325;SDS011;56471;53.508;49.252;2023-05-10T10:19:52;4.00;;;2.63;;
69325;SDS011;56471;53.508;49.252;2023-05-10T10:22:19;6.65;;;2.80;;
69325;SDS011;56471;53.508;49.252;2023-05-10T10:24:45;4.43;;;3.40;;
69325;SDS011;56471;53.508;49.252;2023-05-10T10:27:59;7.07;;;3.53;;
69325;SDS011;56471;53.508;49.252;2023-05-10T10:30:28;4.50;;;3.03;;
69325;SDS011;56471;53.508;49.252;2023-05-10T10:35:35;6.20;;;3.33;;
69325;SDS011;56471;53.508;49.252;2023-05-10T10:38:02;4.13;;;2.90;;
69325;SDS011;56471;53.508;49.252;2023-05-10T10:42:54;4.50;;;3.00;;
69325;SDS011;56471;53.508;49.252;2023-05-10T10:45:21;6.13;;;3.28;;
69325;SDS011;56471;53.508;49.252;2023-05-10T10:47:48;6.90;;;3.08;;
69325;SDS011;56471;53.508;49.252;2023-05-10T10:50:14;4.65;;;3.50;;
69325;SDS011;56471;53.508;49.252;2023-05-10T10:52:43;5.65;;;3.13;;
69325;SDS011;56471;53.508;49.252;2023-05-10T10:57:42;7.57;;;3.58;;
69325;SDS011;56471;53.508;49.252;2023-05-10T11:00:21;5.40;;;3.50;;
69325;SDS011;56471;53.508;49.252;2023-05-10T11:02:49;5.57;;;3.63;;
69325;SDS011;56471;53.508;49.252;2023-05-10T11:07:54;5.88;;;3.03;;
69325;SDS011;56471;53.508;49.252;2023-05-10T11:10:21;4.50;;;3.22;;
69325;SDS011;56471;53.508;49.252;2023-05-10T11:13:04;5.63;;;3.05;;
69325;SDS011;56471;53.508;49.252;2023-05-10T11:17:59;926.05;;;692.58;;
69325;SDS011;56471;53.508;49.252;2023-05-10T11:20:42;592.97;;;473.87;;
69325;SDS011;56471;53.508;49.252;2023-05-10T11:23:29;491.60;;;374.77;;
69325;SDS011;56471;53.508;49.252;2023-05-10T11:25:56;342.10;;;238.50;;
69325;SDS011;56471;53.508;49.252;2023-05-10T11:28:22;238.63;;;157.05;;
69325;SDS011;56471;53.508;49.252;2023-05-10T11:30:48;170.23;;;110.53;;
69325;SDS011;56471;53.508;49.252;2023-05-10T11:33:17;141.27;;;89.85;;
69325;SDS011;56471;53.508;49.252;2023-05-10T11:35:43;123.97;;;76.97;;
69325;SDS011;56471;53.508;49.252;2023-05-10T11:38:09;80.88;;;47.22;;
69325;SDS011;56471;53.508;49.252;2023-05-10T11:40:36;70.22;;;40.55;;
69325;SDS011;56471;53.508;49.252;2023-05-10T11:43:03;53.85;;;31.75;;
69325;SDS011;56471;53.508;49.252;2023-05-10T11:45:33;44.55;;;25.20;;
69325;SDS011;56471;53.508;49.252;2023-05-10T11:47:59;32.28;;;19.23;;
69325;SDS011;56471;53.508;49.252;2023-05-10T11:50:27;30.27;;;17.45;;
69325;SDS011;56471;53.508;49.252;2023-05-10T11:52:54;27.80;;;16.15;;
69325;SDS011;56471;53.508;49.252;2023-05-10T11:55:20;25.10;;;13.82;;
69325;SDS011;56471;53.508;49.252;2023-05-10T11:57:46;21.23;;;12.15;;
69325;SDS011;56471;53.508;49.252;2023-05-10T12:00:12;16.48;;;10.50;;
69325;SDS011;56471;53.508;49.252;2023-05-10T12:02:38;14.77;;;8.85;;
69325;SDS011;56471;53.508;49.252;2023-05-10T12:05:04;11.65;;;7.88;;
69325;SDS011;56471;53.508;49.252;2023-05-10T12:07:31;9.60;;;6.90;;
69325;SDS011;56471;53.508;49.252;2023-05-10T12:10:08;9.50;;;6.28;;
69325;SDS011;56471;53.508;49.252;2023-05-10T12:12:39;8.30;;;5.47;;
69325;SDS011;56471;53.508;49.252;2023-05-10T12:17:45;9.30;;;5.30;;
69325;SDS011;56471;53.508;49.252;2023-05-10T12:20:18;7.03;;;4.85;;
69325;SDS011;56471;53.508;49.252;2023-05-10T12:22:49;8.63;;;5.10;;
69325;SDS011;56471;53.508;49.252;2023-05-10T12:25:17;8.63;;;4.68;;
69325;SDS011;56471;53.508;49.252;2023-05-10T12:27:53;6.82;;;4.63;;
69325;SDS011;56471;53.508;49.252;2023-05-10T12:30:24;463.48;;;301.65;;
69325;SDS011;56471;53.508;49.252;2023-05-10T12:32:52;422.70;;;274.75;;
69325;SDS011;56471;53.508;49.252;2023-05-10T12:35:19;293.55;;;169.10;;
69325;SDS011;56471;53.508;49.252;2023-05-10T12:37:47;227.73;;;131.82;;
69325;SDS011;56471;53.508;49.252;2023-05-10T12:40:13;166.35;;;94.50;;
69325;SDS011;56471;53.508;49.252;2023-05-10T12:42:39;124.72;;;69.03;;
69325;SDS011;56471;53.508;49.252;2023-05-10T12:45:05;84.47;;;43.83;;
69325;SDS011;56471;53.508;49.252;2023-05-10T12:47:32;39.30;;;21.15;;
69325;SDS011;56471;53.508;49.252;2023-05-10T12:49:59;28.90;;;14.90;;
69325;SDS011;56471;53.508;49.252;2023-05-10T12:52:25;18.40;;;10.45;;
69325;SDS011;56471;53.508;49.252;2023-05-10T12:54:52;13.88;;;7.32;;
69325;SDS011;56471;53.508;49.252;2023-05-10T12:57:18;10.23;;;6.47;;
69325;SDS011;56471;53.508;49.252;2023-05-10T12:59:45;8.45;;;5.53;;
69325;SDS011;56471;53.508;49.252;2023-05-10T13:02:10;7.18;;;4.68;;
69325;SDS011;56471;53.508;49.252;2023-05-10T13:04:36;7.30;;;3.90;;
69325;SDS011;56471;53.508;49.252;2023-05-10T13:07:05;6.55;;;3.83;;
69325;SDS011;56471;53.508;49.252;2023-05-10T13:09:31;6.50;;;3.90;;
69325;SDS011;56471;53.508;49.252;2023-05-10T13:11:57;6.05;;;3.30;;
69325;SDS011;56471;53.508;49.252;2023-05-10T13:14:23;7.28;;;3.28;;
69325;SDS011;56471;53.508;49.252;2023-05-10T13:16:49;6.10;;;3.53;;
69325;SDS011;56471;53.508;49.252;2023-05-10T13:19:15;4.90;;;3.30;;
69325;SDS011;56471;53.508;49.252;2023-05-10T13:21:41;4.47;;;3.03;;
69325;SDS011;56471;53.508;49.252;2023-05-10T13:24:07;5.55;;;2.80;;
69325;SDS011;56471;53.508;49.252;2023-05-10T13:26:33;3.95;;;2.80;;
69325;SDS011;56471;53.508;49.252;2023-05-10T13:28:59;5.32;;;2.95;;
69325;SDS011;56471;53.508;49.252;2023-05-10T13:31:24;5.90;;;3.05;;
69325;SDS011;56471;53.508;49.252;2023-05-10T13:33:50;7.60;;;3.10;;
69325;SDS011;56471;53.508;49.252;2023-05-10T13:36:16;4.75;;;2.85;;
69325;SDS011;56471;53.508;49.252;2023-05-10T13:38:41;5.15;;;2.60;;
69325;SDS011;56471;53.508;49.252;2023-05-10T13:41:07;4.32;;;2.55;;
69325;SDS011;56471;53.508;49.252;2023-05-10T13:43:32;3.35;;;2.10;;
69325;SDS011;56471;53.508;49.252;2023-05-10T13:45:58;3.75;;;2.42;;
69325;SDS011;56471;53.508;49.252;2023-05-10T13:48:24;2.47;;;2.00;;
69325;SDS011;56471;53.508;49.252;2023-05-10T13:50:49;2.63;;;2.15;;
69325;SDS011;56471;53.508;49.252;2023-05-10T13:53:15;2.53;;;1.98;;
69325;SDS011;56471;53.508;49.252;2023-05-10T13:55:41;3.60;;;2.20;;
69325;SDS011;56471;53.508;49.252;2023-05-10T13:58:06;3.30;;;2.20;;
69325;SDS011;56471;53.508;49.252;2023-05-10T14:00:32;4.15;;;1.80;;
69325;SDS011;56471;53.508;49.252;2023-05-10T14:02:58;3.63;;;1.63;;
69325;SDS011;56471;53.508;49.252;2023-05-10T14:05:24;4.00;;;1.95;;
69325;SDS011;56471;53.508;49.252;2023-05-10T14:07:50;3.55;;;1.60;;
69325;SDS011;56471;53.508;49.252;2023-05-10T14:10:16;2.25;;;1.80;;
69325;SDS011;56471;53.508;49.252;2023-05-10T14:12:41;2.83;;;1.55;;
69325;SDS011;56471;53.508;49.252;2023-05-10T14:15:07;2.42;;;1.70;;
69325;SDS011;56471;53.508;49.252;2023-05-10T14:17:35;2.03;;;1.40;;
69325;SDS011;56471;53.508;49.252;2023-05-10T14:20:01;4.05;;;1.73;;
69325;SDS011;56471;53.508;49.252;2023-05-10T14:22:27;3.72;;;1.67;;
69325;SDS011;56471;53.508;49.252;2023-05-10T14:24:53;2.15;;;1.55;;
69325;SDS011;56471;53.508;49.252;2023-05-10T14:27:18;3.63;;;1.52;;
69325;SDS011;56471;53.508;49.252;2023-05-10T14:29:44;3.45;;;1.30;;
69325;SDS011;56471;53.508;49.252;2023-05-10T14:32:10;2.35;;;1.40;;
69325;SDS011;56471;53.508;49.252;2023-05-10T14:34:35;2.03;;;1.30;;
69325;SDS011;56471;53.508;49.252;2023-05-10T14:37:01;4.97;;;1.30;;
69325;SDS011;56471;53.508;49.252;2023-05-10T14:39:27;3.78;;;1.48;;
69325;SDS011;56471;53.508;49.252;2023-05-10T14:41:55;2.15;;;1.20;;
69325;SDS011;56471;53.508;49.252;2023-05-10T14:44:21;1.48;;;1.20;;
69325;SDS011;56471;53.508;49.252;2023-05-10T14:46:46;2.10;;;1.30;;
69325;SDS011;56471;53.508;49.252;2023-05-10T14:49:13;1.33;;;1.10;;
69325;SDS011;56471;53.508;49.252;2023-05-10T14:51:39;2.40;;;1.02;;